sensor_id;sensor_type;location;lat;lon;timestamp;pressure;altitude;pressure_sealevel;temperature;humidity
11329;BME280;5719;42.714;23.732;2023-05-08T00:00:17;94639.81;;;12.08;93.04
11329;BME280;5719;42.714;23.732;2023-05-08T00:02:44;94636.97;;;12.00;93.49
11329;BME280;5719;42.714;23.732;2023-05-08T00:05:11;94631.66;;;11.90;93.21
11329;BME280;5719;42.714;23.732;2023-05-08T00:07:40;94641.44;;;11.87;93.71
11329;BME280;5719;42.714;23.732;2023-05-08T00:10:08;94633.06;;;11.83;93.34
11329;BME280;5719;42.714;23.732;2023-05-08T00:12:35;94628.72;;;11.84;93.92
11329;BME280;5719;42.714;23.732;2023-05-08T00:15:03;94628.09;;;11.80;93.93
11329;BME280;5719;42.714;23.732;2023-05-08T00:17:30;94631.63;;;11.79;94.41
11329;BME280;5719;42.714;23.732;2023-05-08T00:19:58;94631.88;;;11.76;94.03
11329;BME280;5719;42.714;23.732;2023-05-08T00:22:27;94631.03;;;11.75;94.23
11329;BME280;5719;42.714;23.732;2023-05-08T00:24:56;94632.88;;;11.73;94.51
11329;BME280;5719;42.714;23.732;2023-05-08T00:27:22;94640.88;;;11.70;94.03
11329;BME280;5719;42.714;23.732;2023-05-08T00:29:49;94637.56;;;11.68;94.25
11329;BME280;5719;42.714;23.732;2023-05-08T00:32:16;94648.03;;;11.67;94.51
11329;BME280;5719;42.714;23.732;2023-05-08T00:34:43;94646.50;;;11.64;94.65
11329;BME280;5719;42.714;23.732;2023-05-08T00:37:10;94645.66;;;11.64;94.57
11329;BME280;5719;42.714;23.732;2023-05-08T00:39:37;94636.56;;;11.47;94.41
11329;BME280;5719;42.714;23.732;2023-05-08T00:42:05;94652.88;;;11.48;94.85
11329;BME280;5719;42.714;23.732;2023-05-08T00:44:32;94643.81;;;11.42;95.51
11329;BME280;5719;42.714;23.732;2023-05-08T00:46:59;94644.88;;;11.40;95.71
11329;BME280;5719;42.714;23.732;2023-05-08T00:49:26;94642.63;;;11.35;95.07
11329;BME280;5719;42.714;23.732;2023-05-08T00:51:54;94649.03;;;11.29;95.39
11329;BME280;5719;42.714;23.732;2023-05-08T00:54:22;94638.09;;;11.26;95.34
11329;BME280;5719;42.714;23.732;2023-05-08T00:56:49;94641.84;;;11.22;95.12
11329;BME280;5719;42.714;23.732;2023-05-08T00:59:20;94642.94;;;11.07;95.17
11329;BME280;5719;42.714;23.732;2023-05-08T01:01:47;94642.75;;;10.97;96.00
11329;BME280;5719;42.714;23.732;2023-05-08T01:04:14;94636.38;;;10.90;96.86
11329;BME280;5719;42.714;23.732;2023-05-08T01:06:42;94645.88;;;10.90;97.14
11329;BME280;5719;42.714;23.732;2023-05-08T01:09:09;94639.16;;;10.87;97.56
11329;BME280;5719;42.714;23.732;2023-05-08T01:11:40;94644.44;;;10.86;97.51
11329;BME280;5719;42.714;23.732;2023-05-08T01:14:13;94638.78;;;10.80;97.29
11329;BME280;5719;42.714;23.732;2023-05-08T01:16:49;94638.03;;;10.78;97.25
11329;BME280;5719;42.714;23.732;2023-05-08T01:19:41;94646.97;;;10.74;97.71
11329;BME280;5719;42.714;23.732;2023-05-08T01:22:22;94642.34;;;10.67;97.39
11329;BME280;5719;42.714;23.732;2023-05-08T01:28:25;94637.91;;;10.56;97.79
11329;BME280;5719;42.714;23.732;2023-05-08T01:31:04;94638.72;;;10.57;98.25
11329;BME280;5719;42.714;23.732;2023-05-08T01:33:39;94637.91;;;10.56;97.81
11329;BME280;5719;42.714;23.732;2023-05-08T01:36:17;94631.19;;;10.54;98.49
11329;BME280;5719;42.714;23.732;2023-05-08T01:38:52;94633.88;;;10.52;98.67
11329;BME280;5719;42.714;23.732;2023-05-08T01:41:25;94634.72;;;10.53;99.25
11329;BME280;5719;42.714;23.732;2023-05-08T01:43:56;94631.69;;;10.46;99.27
11329;BME280;5719;42.714;23.732;2023-05-08T01:46:30;94632.13;;;10.40;97.71
11329;BME280;5719;42.714;23.732;2023-05-08T01:49:04;94637.53;;;10.37;98.50
11329;BME280;5719;42.714;23.732;2023-05-08T01:51:38;94634.94;;;10.37;98.81
11329;BME280;5719;42.714;23.732;2023-05-08T01:54:08;94636.16;;;10.31;96.70
11329;BME280;5719;42.714;23.732;2023-05-08T01:56:37;94634.81;;;10.13;97.95
11329;BME280;5719;42.714;23.732;2023-05-08T01:59:06;94632.16;;;10.15;97.40
11329;BME280;5719;42.714;23.732;2023-05-08T02:01:34;94634.19;;;10.10;97.62
11329;BME280;5719;42.714;23.732;2023-05-08T02:04:04;94629.44;;;10.04;97.91
11329;BME280;5719;42.714;23.732;2023-05-08T02:06:33;94628.59;;;10.03;99.35
11329;BME280;5719;42.714;23.732;2023-05-08T02:09:02;94628.06;;;9.98;98.54
11329;BME280;5719;42.714;23.732;2023-05-08T02:11:31;94630.03;;;9.95;98.81
11329;BME280;5719;42.714;23.732;2023-05-08T02:13:59;94628.19;;;9.97;98.97
11329;BME280;5719;42.714;23.732;2023-05-08T02:16:27;94638.00;;;9.92;98.17
11329;BME280;5719;42.714;23.732;2023-05-08T02:18:57;94637.50;;;9.87;97.99
11329;BME280;5719;42.714;23.732;2023-05-08T02:21:27;94627.56;;;9.80;98.46
11329;BME280;5719;42.714;23.732;2023-05-08T02:23:57;94632.72;;;9.80;98.00
11329;BME280;5719;42.714;23.732;2023-05-08T02:26:25;94631.69;;;9.70;97.27
11329;BME280;5719;42.714;23.732;2023-05-08T02:28:54;94626.94;;;9.64;97.26
11329;BME280;5719;42.714;23.732;2023-05-08T02:31:21;94631.47;;;9.61;98.41
11329;BME280;5719;42.714;23.732;2023-05-08T02:33:50;94636.22;;;9.54;99.02
11329;BME280;5719;42.714;23.732;2023-05-08T02:36:18;94641.66;;;9.50;99.20
11329;BME280;5719;42.714;23.732;2023-05-08T02:38:50;94649.69;;;9.45;100.00
11329;BME280;5719;42.714;23.732;2023-05-08T02:41:20;94644.63;;;9.44;100.00
11329;BME280;5719;42.714;23.732;2023-05-08T02:43:48;94639.66;;;9.41;100.00
11329;BME280;5719;42.714;23.732;2023-05-08T02:46:19;94643.81;;;9.43;100.00
11329;BME280;5719;42.714;23.732;2023-05-08T02:48:54;94647.41;;;9.41;100.00
11329;BME280;5719;42.714;23.732;2023-05-08T02:51:24;94643.19;;;9.40;100.00
11329;BME280;5719;42.714;23.732;2023-05-08T02:54:00;94643.81;;;9.43;100.00
11329;BME280;5719;42.714;23.732;2023-05-08T02:56:33;94643.81;;;9.43;100.00
11329;BME280;5719;42.714;23.732;2023-05-08T02:59:12;94634.94;;;9.47;100.00
11329;BME280;5719;42.714;23.732;2023-05-08T03:01:48;94640.75;;;9.51;100.00
11329;BME280;5719;42.714;23.732;2023-05-08T03:04:23;94643.22;;;9.52;100.00
11329;BME280;5719;42.714;23.732;2023-05-08T03:06:53;94631.97;;;9.53;100.00
11329;BME280;5719;42.714;23.732;2023-05-08T03:09:27;94636.59;;;9.48;100.00
11329;BME280;5719;42.714;23.732;2023-05-08T03:12:00;94644.44;;;9.47;100.00
11329;BME280;5719;42.714;23.732;2023-05-08T03:14:31;94639.59;;;9.42;100.00
11329;BME280;5719;42.714;23.732;2023-05-08T03:17:05;94642.38;;;9.39;100.00
11329;BME280;5719;42.714;23.732;2023-05-08T03:19:35;94646.78;;;9.37;100.00
11329;BME280;5719;42.714;23.732;2023-05-08T03:22:05;94643.28;;;9.38;100.00
11329;BME280;5719;42.714;23.732;2023-05-08T03:24:36;94636.47;;;9.37;100.00
11329;BME280;5719;42.714;23.732;2023-05-08T03:27:04;94643.28;;;9.38;100.00
11329;BME280;5719;42.714;23.732;2023-05-08T03:29:33;94646.91;;;9.35;100.00
11329;BME280;5719;42.714;23.732;2023-05-08T03:32:02;94641.81;;;9.34;100.00
11329;BME280;5719;42.714;23.732;2023-05-08T03:34:30;94653.06;;;9.33;100.00
11329;BME280;5719;42.714;23.732;2023-05-08T03:36:57;94660.78;;;9.33;100.00
11329;BME280;5719;42.714;23.732;2023-05-08T03:39:24;94658.41;;;9.30;100.00
11329;BME280;5719;42.714;23.732;2023-05-08T03:41:54;94655.47;;;9.36;100.00
11329;BME280;5719;42.714;23.732;2023-05-08T03:44:22;94650.81;;;9.41;100.00
11329;BME280;5719;42.714;23.732;2023-05-08T03:46:51;94646.91;;;9.48;100.00
11329;BME280;5719;42.714;23.732;2023-05-08T03:49:22;94650.03;;;9.53;100.00
11329;BME280;5719;42.714;23.732;2023-05-08T03:51:52;94652.28;;;9.45;100.00
11329;BME280;5719;42.714;23.732;2023-05-08T03:54:20;94656.59;;;9.45;100.00
11329;BME280;5719;42.714;23.732;2023-05-08T03:56:50;94641.97;;;9.45;100.00
11329;BME280;5719;42.714;23.732;2023-05-08T03:59:28;94655.81;;;9.57;100.00
11329;BME280;5719;42.714;23.732;2023-05-08T04:02:02;94658.91;;;9.62;100.00
11329;BME280;5719;42.714;23.732;2023-05-08T04:04:37;94655.94;;;9.68;100.00
11329;BME280;5719;42.714;23.732;2023-05-08T04:07:07;94653.59;;;9.77;100.00
11329;BME280;5719;42.714;23.732;2023-05-08T04:09:42;94659.78;;;9.88;100.00
11329;BME280;5719;42.714;23.732;2023-05-08T04:12:14;94658.97;;;10.00;100.00
11329;BME280;5719;42.714;23.732;2023-05-08T04:14:46;94660.75;;;10.12;100.00
11329;BME280;5719;42.714;23.732;2023-05-08T04:17:19;94663.78;;;10.18;100.00
11329;BME280;5719;42.714;23.732;2023-05-08T04:19:51;94659.53;;;10.30;100.00
11329;BME280;5719;42.714;23.732;2023-05-08T04:22:24;94655.91;;;10.45;100.00
11329;BME280;5719;42.714;23.732;2023-05-08T04:24:53;94660.97;;;10.59;100.00
11329;BME280;5719;42.714;23.732;2023-05-08T04:27:24;94660.09;;;10.71;100.00
11329;BME280;5719;42.714;23.732;2023-05-08T04:29:53;94668.66;;;10.85;100.00
11329;BME280;5719;42.714;23.732;2023-05-08T04:32:21;94669.44;;;10.98;100.00
11329;BME280;5719;42.714;23.732;2023-05-08T04:34:49;94671.63;;;11.04;100.00
11329;BME280;5719;42.714;23.732;2023-05-08T04:37:23;94671.50;;;11.05;100.00
11329;BME280;5719;42.714;23.732;2023-05-08T04:39:51;94682.25;;;11.12;100.00
11329;BME280;5719;42.714;23.732;2023-05-08T04:42:19;94669.13;;;11.26;100.00
11329;BME280;5719;42.714;23.732;2023-05-08T04:44:46;94670.63;;;11.41;100.00
11329;BME280;5719;42.714;23.732;2023-05-08T04:47:14;94666.00;;;11.57;100.00
11329;BME280;5719;42.714;23.732;2023-05-08T04:49:41;94668.34;;;11.73;100.00
11329;BME280;5719;42.714;23.732;2023-05-08T04:52:08;94676.72;;;11.88;100.00
11329;BME280;5719;42.714;23.732;2023-05-08T04:54:35;94669.81;;;11.99;100.00
11329;BME280;5719;42.714;23.732;2023-05-08T04:57:02;94663.41;;;12.16;100.00
11329;BME280;5719;42.714;23.732;2023-05-08T04:59:29;94648.81;;;12.37;100.00
11329;BME280;5719;42.714;23.732;2023-05-08T05:01:57;94655.19;;;12.55;100.00
11329;BME280;5719;42.714;23.732;2023-05-08T05:04:28;94652.69;;;12.65;100.00
11329;BME280;5719;42.714;23.732;2023-05-08T05:06:54;94647.84;;;12.94;100.00
11329;BME280;5719;42.714;23.732;2023-05-08T05:09:21;94645.22;;;13.05;99.39
11329;BME280;5719;42.714;23.732;2023-05-08T05:11:49;94650.69;;;13.13;98.35
11329;BME280;5719;42.714;23.732;2023-05-08T05:14:16;94642.88;;;13.24;98.98
11329;BME280;5719;42.714;23.732;2023-05-08T05:16:43;94646.03;;;13.27;97.00
11329;BME280;5719;42.714;23.732;2023-05-08T05:19:10;94652.31;;;13.25;96.23
11329;BME280;5719;42.714;23.732;2023-05-08T05:21:39;94648.13;;;13.34;96.77
11329;BME280;5719;42.714;23.732;2023-05-08T05:24:06;94647.50;;;13.52;97.18
11329;BME280;5719;42.714;23.732;2023-05-08T05:26:33;94637.72;;;13.77;95.78
11329;BME280;5719;42.714;23.732;2023-05-08T05:29:00;94639.97;;;14.02;95.62
11329;BME280;5719;42.714;23.732;2023-05-08T05:31:27;94642.47;;;14.34;91.03
11329;BME280;5719;42.714;23.732;2023-05-08T05:33:55;94632.75;;;14.56;87.83
11329;BME280;5719;42.714;23.732;2023-05-08T05:36:22;94644.88;;;14.77;86.32
11329;BME280;5719;42.714;23.732;2023-05-08T05:38:50;94641.13;;;15.00;85.19
11329;BME280;5719;42.714;23.732;2023-05-08T05:41:17;94635.16;;;15.28;82.43
11329;BME280;5719;42.714;23.732;2023-05-08T05:43:45;94629.75;;;15.50;76.43
11329;BME280;5719;42.714;23.732;2023-05-08T05:46:12;94641.13;;;15.78;75.36
11329;BME280;5719;42.714;23.732;2023-05-08T05:48:39;94632.63;;;16.05;75.18
11329;BME280;5719;42.714;23.732;2023-05-08T05:51:06;94631.06;;;16.31;74.81
11329;BME280;5719;42.714;23.732;2023-05-08T05:53:33;94633.75;;;16.49;73.97
11329;BME280;5719;42.714;23.732;2023-05-08T05:56:01;94622.03;;;16.72;72.96
11329;BME280;5719;42.714;23.732;2023-05-08T05:58:28;94622.56;;;17.03;71.09
11329;BME280;5719;42.714;23.732;2023-05-08T06:00:57;94626.97;;;17.30;69.53
11329;BME280;5719;42.714;23.732;2023-05-08T06:03:25;94615.38;;;17.59;65.80
11329;BME280;5719;42.714;23.732;2023-05-08T06:05:52;94620.06;;;17.91;66.87
11329;BME280;5719;42.714;23.732;2023-05-08T06:08:19;94613.84;;;18.10;61.51
11329;BME280;5719;42.714;23.732;2023-05-08T06:10:47;94609.16;;;17.96;62.63
11329;BME280;5719;42.714;23.732;2023-05-08T06:13:15;94614.50;;;18.12;62.32
11329;BME280;5719;42.714;23.732;2023-05-08T06:15:42;94613.44;;;18.23;62.84
11329;BME280;5719;42.714;23.732;2023-05-08T06:18:09;94615.41;;;18.21;59.84
11329;BME280;5719;42.714;23.732;2023-05-08T06:20:36;94618.09;;;18.11;62.76
11329;BME280;5719;42.714;23.732;2023-05-08T06:23:04;94608.22;;;18.23;62.68
11329;BME280;5719;42.714;23.732;2023-05-08T06:25:31;94613.66;;;18.29;62.44
11329;BME280;5719;42.714;23.732;2023-05-08T06:27:59;94613.50;;;18.31;60.71
11329;BME280;5719;42.714;23.732;2023-05-08T06:30:27;94609.66;;;18.43;60.32
11329;BME280;5719;42.714;23.732;2023-05-08T06:32:54;94608.63;;;18.53;59.51
11329;BME280;5719;42.714;23.732;2023-05-08T06:35:21;94607.34;;;18.57;58.95
11329;BME280;5719;42.714;23.732;2023-05-08T06:37:48;94610.28;;;18.63;56.53
11329;BME280;5719;42.714;23.732;2023-05-08T06:40:15;94604.97;;;18.72;56.28
11329;BME280;5719;42.714;23.732;2023-05-08T06:42:42;94610.72;;;18.84;56.22
11329;BME280;5719;42.714;23.732;2023-05-08T06:45:10;94605.25;;;19.03;56.85
11329;BME280;5719;42.714;23.732;2023-05-08T06:47:39;94604.78;;;19.07;57.32
11329;BME280;5719;42.714;23.732;2023-05-08T06:50:07;94605.03;;;19.30;54.05
11329;BME280;5719;42.714;23.732;2023-05-08T06:52:34;94614.28;;;19.08;53.24
11329;BME280;5719;42.714;23.732;2023-05-08T06:55:01;94604.44;;;19.10;54.34
11329;BME280;5719;42.714;23.732;2023-05-08T06:57:29;94607.63;;;19.30;52.79
11329;BME280;5719;42.714;23.732;2023-05-08T06:59:56;94605.66;;;19.32;53.06
11329;BME280;5719;42.714;23.732;2023-05-08T07:02:23;94608.03;;;19.51;52.86
11329;BME280;5719;42.714;23.732;2023-05-08T07:04:51;94613.34;;;19.84;51.88
11329;BME280;5719;42.714;23.732;2023-05-08T07:07:19;94613.50;;;19.98;50.42
11329;BME280;5719;42.714;23.732;2023-05-08T07:09:46;94609.06;;;20.23;50.17
11329;BME280;5719;42.714;23.732;2023-05-08T07:12:14;94609.91;;;20.40;50.29
11329;BME280;5719;42.714;23.732;2023-05-08T07:14:41;94614.63;;;20.52;50.83
11329;BME280;5719;42.714;23.732;2023-05-08T07:17:09;94615.38;;;20.85;48.97
11329;BME280;5719;42.714;23.732;2023-05-08T07:19:36;94605.84;;;21.31;48.20
11329;BME280;5719;42.714;23.732;2023-05-08T07:22:05;94608.59;;;21.69;46.50
11329;BME280;5719;42.714;23.732;2023-05-08T07:24:32;94605.31;;;21.75;46.22
11329;BME280;5719;42.714;23.732;2023-05-08T07:26:59;94603.75;;;21.80;45.89
11329;BME280;5719;42.714;23.732;2023-05-08T07:29:26;94605.22;;;21.83;46.60
11329;BME280;5719;42.714;23.732;2023-05-08T07:31:55;94598.81;;;22.08;47.32
11329;BME280;5719;42.714;23.732;2023-05-08T07:34:23;94597.13;;;22.30;46.87
11329;BME280;5719;42.714;23.732;2023-05-08T07:36:50;94598.16;;;22.29;45.99
11329;BME280;5719;42.714;23.732;2023-05-08T07:39:19;94606.31;;;21.96;46.58
11329;BME280;5719;42.714;23.732;2023-05-08T07:41:46;94598.81;;;22.08;46.61
11329;BME280;5719;42.714;23.732;2023-05-08T07:44:13;94600.28;;;22.11;45.77
11329;BME280;5719;42.714;23.732;2023-05-08T07:46:40;94599.31;;;22.26;45.23
11329;BME280;5719;42.714;23.732;2023-05-08T07:49:07;94598.06;;;22.37;46.35
11329;BME280;5719;42.714;23.732;2023-05-08T07:51:34;94602.88;;;22.33;45.71
11329;BME280;5719;42.714;23.732;2023-05-08T07:54:02;94605.81;;;22.16;46.74
11329;BME280;5719;42.714;23.732;2023-05-08T07:56:30;94604.16;;;22.00;46.31
11329;BME280;5719;42.714;23.732;2023-05-08T07:58:57;94599.00;;;21.53;47.72
11329;BME280;5719;42.714;23.732;2023-05-08T08:01:24;94596.19;;;21.55;48.53
11329;BME280;5719;42.714;23.732;2023-05-08T08:03:51;94595.28;;;21.70;49.47
11329;BME280;5719;42.714;23.732;2023-05-08T08:06:19;94597.72;;;21.49;48.94
11329;BME280;5719;42.714;23.732;2023-05-08T08:08:46;94593.88;;;21.29;49.09
11329;BME280;5719;42.714;23.732;2023-05-08T08:11:13;94590.06;;;21.31;50.00
11329;BME280;5719;42.714;23.732;2023-05-08T08:13:42;94589.06;;;21.40;48.59
11329;BME280;5719;42.714;23.732;2023-05-08T08:16:09;94590.91;;;21.63;50.34
11329;BME280;5719;42.714;23.732;2023-05-08T08:18:36;94592.31;;;21.73;47.26
11329;BME280;5719;42.714;23.732;2023-05-08T08:21:06;94599.88;;;21.45;46.68
11329;BME280;5719;42.714;23.732;2023-05-08T08:23:33;94592.78;;;21.46;48.56
11329;BME280;5719;42.714;23.732;2023-05-08T08:26:00;94594.50;;;21.62;48.10
11329;BME280;5719;42.714;23.732;2023-05-08T08:28:27;94587.47;;;21.85;48.94
11329;BME280;5719;42.714;23.732;2023-05-08T08:30:55;94592.88;;;21.91;49.66
11329;BME280;5719;42.714;23.732;2023-05-08T08:33:22;94586.25;;;21.11;50.78
11329;BME280;5719;42.714;23.732;2023-05-08T08:35:49;94589.59;;;20.81;50.00
11329;BME280;5719;42.714;23.732;2023-05-08T08:38:16;94584.78;;;20.37;52.14
11329;BME280;5719;42.714;23.732;2023-05-08T08:40:43;94588.03;;;20.64;52.19
11329;BME280;5719;42.714;23.732;2023-05-08T08:43:11;94583.72;;;20.71;52.18
11329;BME280;5719;42.714;23.732;2023-05-08T08:45:38;94585.50;;;20.86;53.77
11329;BME280;5719;42.714;23.732;2023-05-08T08:48:09;94580.94;;;20.72;52.51
11329;BME280;5719;42.714;23.732;2023-05-08T08:50:42;94572.31;;;20.23;53.61
11329;BME280;5719;42.714;23.732;2023-05-08T08:53:11;94579.72;;;20.28;55.63
11329;BME280;5719;42.714;23.732;2023-05-08T08:55:44;94575.22;;;20.61;54.08
11329;BME280;5719;42.714;23.732;2023-05-08T08:58:18;94575.94;;;20.46;53.96
11329;BME280;5719;42.714;23.732;2023-05-08T09:00:48;94571.16;;;20.26;53.76
11329;BME280;5719;42.714;23.732;2023-05-08T09:03:17;94563.47;;;20.24;56.03
11329;BME280;5719;42.714;23.732;2023-05-08T09:05:44;94559.22;;;20.31;55.25
11329;BME280;5719;42.714;23.732;2023-05-08T09:08:13;94558.91;;;20.81;55.58
11329;BME280;5719;42.714;23.732;2023-05-08T09:10:40;94563.06;;;20.68;55.51
11329;BME280;5719;42.714;23.732;2023-05-08T09:13:07;94539.78;;;20.48;54.83
11329;BME280;5719;42.714;23.732;2023-05-08T09:15:34;94561.63;;;20.49;55.47
11329;BME280;5719;42.714;23.732;2023-05-08T09:18:01;94559.19;;;20.39;55.78
11329;BME280;5719;42.714;23.732;2023-05-08T09:20:30;94546.50;;;20.59;55.39
11329;BME280;5719;42.714;23.732;2023-05-08T09:22:59;94545.22;;;20.47;55.50
11329;BME280;5719;42.714;23.732;2023-05-08T09:25:40;94542.13;;;20.27;56.39
11329;BME280;5719;42.714;23.732;2023-05-08T09:28:25;94538.97;;;20.48;57.32
11329;BME280;5719;42.714;23.732;2023-05-08T09:30:53;94545.00;;;21.03;55.02
11329;BME280;5719;42.714;23.732;2023-05-08T09:33:21;94529.84;;;21.44;53.29
11329;BME280;5719;42.714;23.732;2023-05-08T09:35:50;94525.47;;;21.37;54.32
11329;BME280;5719;42.714;23.732;2023-05-08T09:38:34;94528.19;;;21.43;54.40
11329;BME280;5719;42.714;23.732;2023-05-08T09:41:06;94531.66;;;21.44;53.45
11329;BME280;5719;42.714;23.732;2023-05-08T09:47:11;94527.69;;;21.48;53.78
11329;BME280;5719;42.714;23.732;2023-05-08T09:49:39;94525.69;;;21.50;54.03
11329;BME280;5719;42.714;23.732;2023-05-08T09:52:07;94529.38;;;21.41;54.58
11329;BME280;5719;42.714;23.732;2023-05-08T09:54:40;94519.91;;;20.93;54.60
11329;BME280;5719;42.714;23.732;2023-05-08T09:57:11;94511.41;;;20.44;57.14
11329;BME280;5719;42.714;23.732;2023-05-08T09:59:38;94527.69;;;20.39;59.48
11329;BME280;5719;42.714;23.732;2023-05-08T10:02:11;94522.63;;;20.22;59.74
11329;BME280;5719;42.714;23.732;2023-05-08T10:04:41;94516.56;;;20.13;58.18
11329;BME280;5719;42.714;23.732;2023-05-08T10:07:09;94517.22;;;20.07;59.84
11329;BME280;5719;42.714;23.732;2023-05-08T10:09:36;94506.34;;;20.26;60.52
11329;BME280;5719;42.714;23.732;2023-05-08T10:12:04;94511.56;;;20.50;59.73
11329;BME280;5719;42.714;23.732;2023-05-08T10:14:31;94506.94;;;20.61;62.04
11329;BME280;5719;42.714;23.732;2023-05-08T10:16:59;94516.25;;;21.02;62.48
11329;BME280;5719;42.714;23.732;2023-05-08T10:19:36;94507.56;;;21.01;61.51
11329;BME280;5719;42.714;23.732;2023-05-08T10:22:11;94511.94;;;21.17;63.15
11329;BME280;5719;42.714;23.732;2023-05-08T10:24:43;94514.81;;;21.30;58.98
11329;BME280;5719;42.714;23.732;2023-05-08T10:27:16;94516.69;;;21.67;58.69
11329;BME280;5719;42.714;23.732;2023-05-08T10:29:51;94515.91;;;21.36;56.12
11329;BME280;5719;42.714;23.732;2023-05-08T10:32:19;94501.38;;;21.25;56.86
11329;BME280;5719;42.714;23.732;2023-05-08T10:34:51;94506.28;;;21.51;56.87
11329;BME280;5719;42.714;23.732;2023-05-08T10:37:19;94502.09;;;21.79;54.03
11329;BME280;5719;42.714;23.732;2023-05-08T10:39:47;94513.63;;;22.01;54.16
11329;BME280;5719;42.714;23.732;2023-05-08T10:42:15;94508.69;;;22.65;50.38
11329;BME280;5719;42.714;23.732;2023-05-08T10:44:42;94505.50;;;23.34;49.63
11329;BME280;5719;42.714;23.732;2023-05-08T10:47:14;94503.63;;;23.14;46.31
11329;BME280;5719;42.714;23.732;2023-05-08T10:49:50;94504.56;;;23.06;49.41
11329;BME280;5719;42.714;23.732;2023-05-08T10:52:31;94494.78;;;23.57;49.25
11329;BME280;5719;42.714;23.732;2023-05-08T10:55:13;94502.34;;;23.60;46.88
11329;BME280;5719;42.714;23.732;2023-05-08T10:58:08;94498.75;;;23.47;48.22
11329;BME280;5719;42.714;23.732;2023-05-08T11:01:11;94496.59;;;22.85;49.19
11329;BME280;5719;42.714;23.732;2023-05-08T11:03:40;94495.16;;;22.82;51.16
11329;BME280;5719;42.714;23.732;2023-05-08T11:06:07;94497.78;;;22.97;50.02
11329;BME280;5719;42.714;23.732;2023-05-08T11:08:47;94493.72;;;23.52;49.79
11329;BME280;5719;42.714;23.732;2023-05-08T11:11:44;94489.34;;;22.87;49.67
11329;BME280;5719;42.714;23.732;2023-05-08T11:14:17;94492.06;;;22.49;52.98
11329;BME280;5719;42.714;23.732;2023-05-08T11:17:04;94491.31;;;22.26;51.96
11329;BME280;5719;42.714;23.732;2023-05-08T11:19:32;94484.31;;;22.33;52.08
11329;BME280;5719;42.714;23.732;2023-05-08T11:22:18;94483.53;;;22.62;50.37
11329;BME280;5719;42.714;23.732;2023-05-08T11:24:51;94491.91;;;23.16;49.82
11329;BME280;5719;42.714;23.732;2023-05-08T11:27:30;94486.28;;;23.83;47.00
11329;BME280;5719;42.714;23.732;2023-05-08T11:30:23;94489.31;;;24.63;48.62
11329;BME280;5719;42.714;23.732;2023-05-08T11:33:13;94476.91;;;25.72;46.54
11329;BME280;5719;42.714;23.732;2023-05-08T11:35:42;94481.59;;;26.16;46.43
11329;BME280;5719;42.714;23.732;2023-05-08T11:38:31;94486.06;;;26.55;46.54
11329;BME280;5719;42.714;23.732;2023-05-08T11:41:02;94473.78;;;26.67;43.98
11329;BME280;5719;42.714;23.732;2023-05-08T11:46:50;94462.75;;;26.83;44.32
11329;BME280;5719;42.714;23.732;2023-05-08T11:49:19;94464.81;;;26.68;44.09
11329;BME280;5719;42.714;23.732;2023-05-08T11:51:48;94461.19;;;26.56;43.98
11329;BME280;5719;42.714;23.732;2023-05-08T11:54:20;94454.25;;;26.55;44.76
11329;BME280;5719;42.714;23.732;2023-05-08T11:56:50;94451.00;;;26.40;45.30
11329;BME280;5719;42.714;23.732;2023-05-08T11:59:17;94440.38;;;26.53;46.73
11329;BME280;5719;42.714;23.732;2023-05-08T12:01:46;94437.09;;;26.57;47.60
11329;BME280;5719;42.714;23.732;2023-05-08T12:04:14;94439.53;;;26.59;45.82
11329;BME280;5719;42.714;23.732;2023-05-08T12:06:41;94436.34;;;26.30;46.21
11329;BME280;5719;42.714;23.732;2023-05-08T12:09:10;94437.16;;;26.11;46.84
11329;BME280;5719;42.714;23.732;2023-05-08T12:11:37;94440.84;;;25.77;46.73
11329;BME280;5719;42.714;23.732;2023-05-08T12:14:07;94451.56;;;25.43;47.96
11329;BME280;5719;42.714;23.732;2023-05-08T12:16:34;94450.53;;;25.24;48.69
11329;BME280;5719;42.714;23.732;2023-05-08T12:19:03;94451.22;;;24.92;49.32
11329;BME280;5719;42.714;23.732;2023-05-08T12:21:31;94455.41;;;24.32;51.75
11329;BME280;5719;42.714;23.732;2023-05-08T12:23:59;94446.88;;;24.09;53.72
11329;BME280;5719;42.714;23.732;2023-05-08T12:26:28;94455.94;;;24.21;53.73
11329;BME280;5719;42.714;23.732;2023-05-08T12:28:55;94460.59;;;24.19;54.11
11329;BME280;5719;42.714;23.732;2023-05-08T12:31:23;94453.41;;;24.41;52.76
11329;BME280;5719;42.714;23.732;2023-05-08T12:33:51;94457.31;;;23.89;53.54
11329;BME280;5719;42.714;23.732;2023-05-08T12:36:19;94454.91;;;23.46;54.04
11329;BME280;5719;42.714;23.732;2023-05-08T12:38:47;94458.94;;;23.06;56.54
11329;BME280;5719;42.714;23.732;2023-05-08T12:41:22;94459.88;;;22.98;57.35
11329;BME280;5719;42.714;23.732;2023-05-08T12:43:49;94456.91;;;23.08;56.37
11329;BME280;5719;42.714;23.732;2023-05-08T12:46:16;94450.22;;;23.26;55.11
11329;BME280;5719;42.714;23.732;2023-05-08T12:48:45;94458.00;;;23.13;55.75
11329;BME280;5719;42.714;23.732;2023-05-08T12:51:12;94455.38;;;23.34;55.08
11329;BME280;5719;42.714;23.732;2023-05-08T12:53:39;94458.59;;;22.94;55.77
11329;BME280;5719;42.714;23.732;2023-05-08T12:56:07;94463.78;;;23.02;55.35
11329;BME280;5719;42.714;23.732;2023-05-08T12:58:34;94464.00;;;23.07;55.01
11329;BME280;5719;42.714;23.732;2023-05-08T13:01:06;94462.09;;;23.16;54.11
11329;BME280;5719;42.714;23.732;2023-05-08T13:03:34;94465.06;;;23.27;53.65
11329;BME280;5719;42.714;23.732;2023-05-08T13:06:04;94442.19;;;23.13;53.79
11329;BME280;5719;42.714;23.732;2023-05-08T13:08:32;94437.41;;;23.23;56.25
11329;BME280;5719;42.714;23.732;2023-05-08T13:11:01;94427.97;;;23.35;55.13
11329;BME280;5719;42.714;23.732;2023-05-08T13:13:30;94436.09;;;23.55;55.25
11329;BME280;5719;42.714;23.732;2023-05-08T13:16:01;94436.94;;;23.56;54.91
11329;BME280;5719;42.714;23.732;2023-05-08T13:18:28;94432.22;;;23.51;55.76
11329;BME280;5719;42.714;23.732;2023-05-08T13:20:56;94433.25;;;23.78;53.92
11329;BME280;5719;42.714;23.732;2023-05-08T13:23:26;94438.75;;;23.83;56.13